createdAt,value
2022-10-15T00:01:17.368Z,99048.94
2022-10-15T00:03:45.391Z,99043.13
2022-10-15T00:06:15.995Z,99015.16
2022-10-15T00:08:43.229Z,99038.84
2022-10-15T00:11:13.124Z,99043.38
2022-10-15T00:13:40.443Z,99032.25
2022-10-15T00:16:10.775Z,99040.00
2022-10-15T00:18:37.871Z,99034.19
2022-10-15T00:21:11.577Z,99025.56
2022-10-15T00:23:39.038Z,99036.84
2022-10-15T00:26:08.777Z,99030.59
2022-10-15T00:28:35.631Z,99028.84
2022-10-15T00:31:07.995Z,99027.94
2022-10-15T00:33:35.191Z,99029.56
2022-10-15T00:36:15.873Z,99033.72
2022-10-15T00:38:43.400Z,99029.88
2022-10-15T00:41:20.139Z,99025.59
2022-10-15T00:43:48.211Z,99028.41
2022-10-15T00:46:31.279Z,99025.50
2022-10-15T00:49:25.931Z,99028.84
2022-10-15T00:51:56.045Z,99025.03
2022-10-15T00:54:24.303Z,99000.50
2022-10-15T00:56:51.302Z,99023.84
2022-10-15T00:59:22.475Z,99034.66
2022-10-15T01:01:49.218Z,99019.69
2022-10-15T01:04:18.745Z,99025.72
2022-10-15T01:06:46.039Z,99012.25
2022-10-15T01:09:13.428Z,99012.84
2022-10-15T01:11:47.409Z,99020.75
2022-10-15T01:14:49.508Z,99016.09
2022-10-15T01:17:26.812Z,99013.78
2022-10-15T01:20:24.675Z,99019.47
2022-10-15T01:23:27.952Z,98988.59
2022-10-15T01:26:13.104Z,99004.03
2022-10-15T01:28:53.179Z,99010.75
2022-10-15T01:31:31.968Z,99011.72
2022-10-15T01:34:09.253Z,99010.78
2022-10-15T01:36:47.950Z,98986.66
2022-10-15T01:39:30.806Z,98998.81
2022-10-15T01:42:07.628Z,98997.78
2022-10-15T01:44:40.139Z,98972.72
2022-10-15T01:47:24.840Z,98994.50
2022-10-15T01:49:55.102Z,98985.69
2022-10-15T01:52:28.263Z,98970.72
2022-10-15T01:54:55.869Z,98981.28
2022-10-15T01:57:26.436Z,98989.41
2022-10-15T01:59:54.292Z,98979.22
2022-10-15T02:02:23.569Z,98975.94
2022-10-15T02:04:50.580Z,98979.22
2022-10-15T02:07:40.655Z,98981.53
2022-10-15T02:10:16.767Z,98988.13
2022-10-15T02:13:12.438Z,98991.38
2022-10-15T02:15:45.590Z,98987.53
2022-10-15T02:18:26.973Z,98984.06
2022-10-15T02:21:02.861Z,98984.63
2022-10-15T02:23:32.317Z,99006.91
2022-10-15T02:26:05.397Z,98992.94
2022-10-15T02:28:35.284Z,99006.50
2022-10-15T02:31:03.633Z,99013.81
2022-10-15T02:33:33.825Z,99013.81
2022-10-15T02:36:01.047Z,99004.34
2022-10-15T02:38:31.343Z,99026.50
2022-10-15T02:40:59.698Z,99030.88
2022-10-15T02:43:26.553Z,99020.53
2022-10-15T02:45:53.311Z,99022.84
2022-10-15T02:48:21.201Z,99027.50
2022-10-15T02:50:48.102Z,99032.03
2022-10-15T02:53:14.762Z,99029.31
2022-10-15T02:55:43.190Z,99030.13
2022-10-15T02:58:09.872Z,99030.59
2022-10-15T03:00:36.669Z,99032.22
2022-10-15T03:03:03.550Z,99019.25
2022-10-15T03:05:30.419Z,99020.00
2022-10-15T03:08:00.114Z,99014.78
2022-10-15T03:10:27.695Z,99002.63
2022-10-15T03:12:54.656Z,99015.72
2022-10-15T03:15:21.876Z,98992.56
2022-10-15T03:17:48.563Z,99019.09
2022-10-15T03:20:17.552Z,99004.97
2022-10-15T03:22:44.364Z,99022.34
2022-10-15T03:25:11.246Z,99024.91
2022-10-15T03:27:38.189Z,99031.31
2022-10-15T03:30:13.499Z,99030.25
2022-10-15T03:32:44.802Z,99029.94
2022-10-15T03:35:11.729Z,99026.00
2022-10-15T03:37:38.424Z,99040.88
2022-10-15T03:40:11.861Z,99047.09
2022-10-15T03:42:41.343Z,99045.00
2022-10-15T03:45:09.607Z,99022.97
2022-10-15T03:47:36.348Z,99030.25
2022-10-15T03:50:03.184Z,99032.94
2022-10-15T03:52:29.994Z,99024.59
2022-10-15T03:54:56.670Z,99028.78
2022-10-15T03:57:24.499Z,99037.97
2022-10-15T03:59:57.279Z,99053.84
2022-10-15T04:02:27.043Z,99066.63
2022-10-15T04:04:56.250Z,99053.41
2022-10-15T04:07:23.514Z,99063.97
2022-10-15T04:09:50.265Z,99062.69
2022-10-15T04:12:23.535Z,99056.53
2022-10-15T04:14:50.615Z,99061.63
2022-10-15T04:17:17.873Z,99055.25
2022-10-15T04:19:45.556Z,99060.81
2022-10-15T04:22:14.984Z,99040.53
2022-10-15T04:24:47.244Z,99065.13
2022-10-15T04:27:24.574Z,99054.53
2022-10-15T04:29:51.264Z,99069.88
2022-10-15T04:32:18.847Z,99050.97
2022-10-15T04:34:47.362Z,99046.34
2022-10-15T04:37:15.563Z,99075.47
2022-10-15T04:39:42.747Z,99085.22
2022-10-15T04:42:12.731Z,99083.09
2022-10-15T04:44:40.309Z,99082.56
2022-10-15T04:47:07.006Z,99085.06
2022-10-15T04:49:42.090Z,99084.50
2022-10-15T04:52:31.613Z,99085.78
2022-10-15T04:55:05.410Z,99095.09
2022-10-15T04:57:32.287Z,99081.16
2022-10-15T04:59:58.937Z,99082.44
2022-10-15T05:02:32.950Z,99080.59
2022-10-15T05:05:26.003Z,99080.59
2022-10-15T05:08:04.875Z,99075.69
2022-10-15T05:11:01.913Z,99095.56
2022-10-15T05:13:30.063Z,99090.78
2022-10-15T05:15:58.039Z,99095.78
2022-10-15T05:18:25.547Z,99102.75
2022-10-15T05:20:53.790Z,99094.97
2022-10-15T05:23:20.562Z,99092.53
2022-10-15T05:26:06.637Z,99105.88
2022-10-15T05:28:34.157Z,99099.41
2022-10-15T05:31:10.416Z,99095.22
2022-10-15T05:33:38.650Z,99085.72
2022-10-15T05:36:13.037Z,99114.41
2022-10-15T05:38:41.045Z,99116.38
2022-10-15T05:41:07.782Z,99120.69
2022-10-15T05:43:37.392Z,99125.69
2022-10-15T05:46:12.204Z,99120.84
2022-10-15T05:48:38.962Z,99130.34
2022-10-15T05:51:07.797Z,99136.88
2022-10-15T05:53:34.874Z,99144.75
2022-10-15T05:56:08.099Z,99144.53
2022-10-15T05:58:37.380Z,99148.25
2022-10-15T06:01:07.929Z,99156.50
2022-10-15T06:03:40.335Z,99166.72
2022-10-15T06:06:17.150Z,99161.16
2022-10-15T06:08:44.243Z,99183.34
2022-10-15T06:11:11.148Z,99167.78
2022-10-15T06:13:39.519Z,99135.56
2022-10-15T06:16:07.195Z,99161.22
2022-10-15T06:18:34.518Z,99167.28
2022-10-15T06:21:02.438Z,99145.69
2022-10-15T06:23:29.183Z,99164.59
2022-10-15T06:25:56.032Z,99178.09
2022-10-15T06:29:14.602Z,99171.47
2022-10-15T06:31:41.420Z,99182.75
2022-10-15T06:34:08.287Z,99183.31
2022-10-15T06:36:35.044Z,99173.47
2022-10-15T06:39:01.786Z,99195.66
2022-10-15T06:41:28.434Z,99181.34
2022-10-15T06:43:55.147Z,99185.66
2022-10-15T06:46:21.812Z,99189.72
2022-10-15T06:48:49.823Z,99174.75
2022-10-15T06:51:16.673Z,99208.78
2022-10-15T06:53:49.494Z,99215.19
2022-10-15T06:56:16.171Z,99204.38
2022-10-15T06:58:45.155Z,99199.13
2022-10-15T07:01:11.876Z,99199.94
2022-10-15T07:03:39.112Z,99209.00
2022-10-15T07:06:08.823Z,99221.88
2022-10-15T07:08:36.251Z,99200.25
2022-10-15T07:11:05.231Z,99185.50
2022-10-15T07:13:32.364Z,99219.75
2022-10-15T07:16:06.115Z,99225.59
2022-10-15T07:18:34.224Z,99231.53
2022-10-15T07:21:01.754Z,99229.66
2022-10-15T07:23:28.593Z,99204.34
2022-10-15T07:26:00.929Z,99238.16
2022-10-15T07:28:27.804Z,99220.81
2022-10-15T07:30:54.582Z,99222.34
2022-10-15T07:33:21.358Z,99235.91
2022-10-15T07:35:59.188Z,99214.31
2022-10-15T07:38:26.043Z,99240.00
2022-10-15T07:40:53.014Z,99244.28
2022-10-15T07:43:20.199Z,99250.34
2022-10-15T07:45:50.146Z,99237.66
2022-10-15T07:48:17.321Z,99230.81
2022-10-15T07:50:44.026Z,99244.28
2022-10-15T07:53:11.039Z,99245.34
2022-10-15T07:55:38.145Z,99231.53
2022-10-15T07:58:08.256Z,99245.34
2022-10-15T08:00:35.175Z,99246.63
2022-10-15T08:03:01.973Z,99256.63
2022-10-15T08:05:28.726Z,99249.53
2022-10-15T08:07:55.493Z,99249.53
2022-10-15T08:10:22.500Z,99255.78
2022-10-15T08:12:49.216Z,99235.78
2022-10-15T08:15:16.644Z,99255.41
2022-10-15T08:17:43.617Z,99258.00
2022-10-15T08:20:11.216Z,99263.88
2022-10-15T08:22:37.944Z,99244.88
2022-10-15T08:25:04.881Z,99255.47
2022-10-15T08:27:31.602Z,99244.75
2022-10-15T08:30:00.817Z,99253.72
2022-10-15T08:32:27.675Z,99241.38
2022-10-15T08:34:54.409Z,99262.53
2022-10-15T08:37:21.053Z,99278.47
2022-10-15T08:39:47.841Z,99275.91
2022-10-15T08:42:28.756Z,99268.69
2022-10-15T08:45:13.048Z,99281.13
2022-10-15T08:47:56.893Z,99277.31
2022-10-15T08:50:50.382Z,99277.56
2022-10-15T08:53:23.459Z,99275.94
2022-10-15T08:55:53.761Z,99277.69
2022-10-15T08:58:57.230Z,99288.50
2022-10-15T09:01:40.657Z,99275.00
2022-10-15T09:04:24.260Z,99296.75
2022-10-15T09:07:02.775Z,99300.66
2022-10-15T09:09:44.646Z,99300.91
2022-10-15T09:12:26.295Z,99303.19
2022-10-15T09:14:58.489Z,99288.44
2022-10-15T09:17:31.921Z,99287.59
2022-10-15T09:20:02.539Z,99286.84
2022-10-15T09:22:31.860Z,99273.38
2022-10-15T09:24:58.626Z,99289.81
2022-10-15T09:27:28.019Z,99289.16
2022-10-15T09:30:22.442Z,99291.50
2022-10-15T09:32:58.162Z,99288.88
2022-10-15T09:35:50.018Z,99286.00
2022-10-15T09:38:42.792Z,99297.44
2022-10-15T09:41:22.619Z,99283.88
2022-10-15T09:43:52.273Z,99265.88
2022-10-15T09:46:19.527Z,99292.72
2022-10-15T09:48:58.082Z,99287.66
2022-10-15T09:51:32.945Z,99270.75
2022-10-15T09:54:10.520Z,99293.03
2022-10-15T09:56:46.449Z,99282.53
2022-10-15T09:59:18.383Z,99295.19
2022-10-15T10:01:59.012Z,99282.31
2022-10-15T10:04:29.097Z,99292.56
2022-10-15T10:07:03.073Z,99296.28
2022-10-15T10:09:31.657Z,99301.41
2022-10-15T10:12:05.525Z,99306.41
2022-10-15T10:14:34.240Z,99298.16
2022-10-15T10:17:21.739Z,99315.38
2022-10-15T10:20:10.215Z,99307.72
2022-10-15T10:22:52.508Z,99321.00
2022-10-15T10:25:42.539Z,99323.53
2022-10-15T10:28:09.410Z,99328.66
2022-10-15T10:30:38.713Z,99324.75
2022-10-15T10:33:05.982Z,99319.97
2022-10-15T10:35:50.154Z,99311.88
2022-10-15T10:38:29.699Z,99304.69
2022-10-15T10:41:05.076Z,99302.75
2022-10-15T10:43:38.941Z,99304.09
2022-10-15T10:46:18.248Z,99309.16
2022-10-15T10:48:52.809Z,99307.28
2022-10-15T10:51:25.403Z,99292.28
2022-10-15T10:53:56.981Z,99296.28
2022-10-15T10:56:35.649Z,99264.69
2022-10-15T10:59:11.598Z,99278.66
2022-10-15T11:01:38.284Z,99262.66
2022-10-15T11:04:11.871Z,99265.19
2022-10-15T11:06:55.916Z,99272.53
2022-10-15T11:09:47.926Z,99264.94
2022-10-15T11:12:38.488Z,99270.88
2022-10-15T11:15:34.510Z,99263.75
2022-10-15T11:18:28.736Z,99259.81
2022-10-15T11:21:16.781Z,99243.94
2022-10-15T11:24:03.775Z,99242.06
2022-10-15T11:27:06.383Z,99232.28
2022-10-15T11:29:52.149Z,99203.09
2022-10-15T11:32:37.224Z,99213.94
2022-10-15T11:35:53.453Z,99212.78
2022-10-15T11:38:35.779Z,99218.53
2022-10-15T11:41:02.388Z,99224.09
2022-10-15T11:43:34.813Z,99213.34
2022-10-15T11:46:20.142Z,99211.69
2022-10-15T11:49:18.674Z,99184.59
2022-10-15T11:52:13.583Z,99222.31
2022-10-15T11:54:47.206Z,99222.03
2022-10-15T11:57:19.073Z,99216.47
2022-10-15T12:00:02.827Z,99211.81
2022-10-15T12:02:39.658Z,99214.50
2022-10-15T12:05:10.133Z,99222.59
2022-10-15T12:07:46.088Z,99205.13
2022-10-15T12:10:47.595Z,99213.03
2022-10-15T12:13:46.484Z,99203.16
2022-10-15T12:16:31.490Z,99184.75
2022-10-15T12:19:12.020Z,99203.63
2022-10-15T12:21:58.644Z,99206.66
2022-10-15T12:24:47.429Z,99207.09
2022-10-15T12:27:19.972Z,99202.13
2022-10-15T12:30:12.751Z,99202.25
2022-10-15T12:32:48.774Z,99200.25
2022-10-15T12:35:15.600Z,99196.91
2022-10-15T12:37:48.270Z,99203.31
2022-10-15T12:40:21.247Z,99196.84
2022-10-15T12:42:57.873Z,99191.19
2022-10-15T12:45:39.249Z,99193.47
2022-10-15T12:48:16.055Z,99203.81
2022-10-15T12:50:43.695Z,99197.47
2022-10-15T12:53:32.623Z,99195.06
2022-10-15T12:56:15.243Z,99201.72
2022-10-15T12:58:44.797Z,99200.03
2022-10-15T13:01:14.440Z,99197.19
2022-10-15T13:03:50.417Z,99186.00
2022-10-15T13:06:20.325Z,99182.66
2022-10-15T13:09:05.718Z,99191.59
2022-10-15T13:11:35.463Z,99186.94
2022-10-15T13:14:12.382Z,99196.06
2022-10-15T13:16:44.975Z,99194.94
2022-10-15T13:19:20.409Z,99191.16
2022-10-15T13:21:56.626Z,99180.41
2022-10-15T13:24:49.957Z,99204.78
2022-10-15T13:27:24.284Z,99201.53
2022-10-15T13:29:55.229Z,99186.25
2022-10-15T13:32:24.182Z,99186.94
2022-10-15T13:34:51.646Z,99191.81
2022-10-15T13:37:23.047Z,99178.97
2022-10-15T13:39:52.647Z,99181.50
2022-10-15T13:42:23.163Z,99187.41
2022-10-15T13:45:16.293Z,99200.38
2022-10-15T13:47:49.117Z,99182.09
2022-10-15T13:50:24.120Z,99211.84
2022-10-15T13:52:55.606Z,99209.03
2022-10-15T13:55:30.968Z,99203.41
2022-10-15T13:58:05.348Z,99201.88
2022-10-15T14:00:35.006Z,99183.88
2022-10-15T14:03:09.154Z,99196.94
2022-10-15T14:05:36.262Z,99182.16
2022-10-15T14:08:03.401Z,99186.81
2022-10-15T14:10:30.408Z,99201.09
2022-10-15T14:12:57.245Z,99199.50
2022-10-15T14:15:42.851Z,99221.50
2022-10-15T14:18:13.073Z,99233.53
2022-10-15T14:20:45.154Z,99215.31
2022-10-15T14:23:23.463Z,99229.16
2022-10-15T14:25:59.183Z,99229.59
2022-10-15T14:28:28.250Z,99238.03
2022-10-15T14:30:55.386Z,99231.53
2022-10-15T14:33:38.339Z,99212.81
2022-10-15T14:36:11.067Z,99232.66
2022-10-15T14:38:38.369Z,99218.28
2022-10-15T14:41:19.031Z,99229.22
2022-10-15T14:43:45.707Z,99236.66
2022-10-15T14:46:19.253Z,99223.19
2022-10-15T14:48:46.063Z,99236.69
2022-10-15T14:51:19.755Z,99250.00
2022-10-15T14:53:47.294Z,99232.13
2022-10-15T14:56:19.333Z,99247.06
2022-10-15T14:58:53.204Z,99246.66
2022-10-15T15:01:21.000Z,99251.41
2022-10-15T15:03:50.713Z,99220.94
2022-10-15T15:06:18.011Z,99248.31
2022-10-15T15:08:45.128Z,99251.59
2022-10-15T15:11:19.472Z,99229.31
2022-10-15T15:13:46.921Z,99248.66
2022-10-15T15:16:16.126Z,99212.91
2022-10-15T15:18:43.964Z,99251.09
2022-10-15T15:21:14.341Z,99251.75
2022-10-15T15:23:41.602Z,99256.94
2022-10-15T15:26:08.242Z,99263.59
2022-10-15T15:28:35.229Z,99270.03
2022-10-15T15:31:06.237Z,99271.66
2022-10-15T15:33:34.441Z,99256.44
2022-10-15T15:36:11.669Z,99279.38
2022-10-15T15:38:38.514Z,99261.75
2022-10-15T15:41:12.465Z,99259.59
2022-10-15T15:43:39.751Z,99278.41
2022-10-15T15:46:06.743Z,99249.25
2022-10-15T15:48:33.617Z,99287.13
2022-10-15T15:51:06.324Z,99272.56
2022-10-15T15:53:33.184Z,99297.69
2022-10-15T15:55:59.845Z,99293.84
2022-10-15T15:58:26.551Z,99284.09
2022-10-15T16:00:53.304Z,99285.16
2022-10-15T16:03:19.983Z,99283.28
2022-10-15T16:05:49.177Z,99288.34
2022-10-15T16:08:15.878Z,99276.78
2022-10-15T16:10:42.909Z,99274.97
2022-10-15T16:13:09.560Z,99285.28
2022-10-15T16:15:36.433Z,99278.13
2022-10-15T16:18:03.233Z,99291.56
2022-10-15T16:20:29.985Z,99276.16
2022-10-15T16:22:56.758Z,99298.22
2022-10-15T16:25:25.284Z,99292.44
2022-10-15T16:27:56.837Z,99270.47
2022-10-15T16:30:23.587Z,99289.16
2022-10-15T16:32:51.586Z,99313.69
2022-10-15T16:35:18.315Z,99283.25
2022-10-15T16:37:46.174Z,99303.13
2022-10-15T16:40:13.298Z,99298.63
2022-10-15T16:42:40.166Z,99316.38
2022-10-15T16:45:07.641Z,99319.66
2022-10-15T16:47:34.719Z,99320.69
2022-10-15T16:50:02.559Z,99296.28
2022-10-15T16:52:29.694Z,99334.41
2022-10-15T16:54:56.355Z,99315.53
2022-10-15T16:57:23.056Z,99334.00
2022-10-15T16:59:49.756Z,99315.66
2022-10-15T17:02:16.465Z,99334.41
2022-10-15T17:04:43.174Z,99352.09
2022-10-15T17:07:09.883Z,99340.00
2022-10-15T17:09:37.558Z,99314.44
2022-10-15T17:12:04.557Z,99368.50
2022-10-15T17:14:31.433Z,99370.50
2022-10-15T17:16:58.206Z,99371.47
2022-10-15T17:19:28.958Z,99359.84
2022-10-15T17:21:58.542Z,99372.84
2022-10-15T17:24:25.320Z,99386.81
2022-10-15T17:26:52.292Z,99395.19
2022-10-15T17:29:20.631Z,99396.38
2022-10-15T17:31:49.759Z,99391.81
2022-10-15T17:34:17.410Z,99372.28
2022-10-15T17:36:47.232Z,99370.97
2022-10-15T17:39:19.996Z,99393.91
2022-10-15T17:41:47.113Z,99378.78
2022-10-15T17:44:14.187Z,99385.41
2022-10-15T17:46:41.324Z,99384.59
2022-10-15T17:49:10.892Z,99360.28
2022-10-15T17:51:39.336Z,99363.66
2022-10-15T17:54:06.497Z,99366.22
2022-10-15T17:56:35.439Z,99377.28
2022-10-15T17:59:05.233Z,99378.22
2022-10-15T18:01:57.253Z,99366.69
2022-10-15T18:04:25.425Z,99384.53
2022-10-15T18:06:52.197Z,99377.97
2022-10-15T18:09:25.931Z,99406.84
2022-10-15T18:11:55.979Z,99398.00
2022-10-15T18:14:29.043Z,99375.78
2022-10-15T18:16:55.810Z,99389.41
2022-10-15T18:19:22.662Z,99386.59
2022-10-15T18:21:49.726Z,99388.22
2022-10-15T18:24:21.018Z,99392.97
2022-10-15T18:26:49.588Z,99393.91
2022-10-15T18:29:16.410Z,99382.41
2022-10-15T18:31:43.323Z,99397.75
2022-10-15T18:34:10.444Z,99378.91
2022-10-15T18:36:37.865Z,99370.31
2022-10-15T18:39:04.567Z,99412.41
2022-10-15T18:41:37.553Z,99419.50
2022-10-15T18:44:07.209Z,99412.97
2022-10-15T18:46:35.078Z,99388.81
2022-10-15T18:49:02.345Z,99413.22
2022-10-15T18:51:31.420Z,99416.56
2022-10-15T18:54:00.185Z,99402.16
2022-10-15T18:56:27.418Z,99394.03
2022-10-15T18:58:54.357Z,99395.31
2022-10-15T19:01:36.166Z,99408.13
2022-10-15T19:04:09.142Z,99417.66
2022-10-15T19:06:42.516Z,99421.81
2022-10-15T19:09:12.619Z,99412.44
2022-10-15T19:11:41.626Z,99420.91
2022-10-15T19:14:08.738Z,99433.34
2022-10-15T19:16:35.886Z,99380.88
2022-10-15T19:19:07.059Z,99414.53
2022-10-15T19:21:34.086Z,99406.56
2022-10-15T19:24:01.107Z,99406.56
2022-10-15T19:26:28.428Z,99428.72
2022-10-15T19:28:56.718Z,99425.69
2022-10-15T19:31:25.062Z,99429.50
2022-10-15T19:33:51.927Z,99415.63
2022-10-15T19:36:20.647Z,99422.50
2022-10-15T19:38:47.441Z,99427.88
2022-10-15T19:41:16.955Z,99411.69
2022-10-15T19:43:43.873Z,99433.09
2022-10-15T19:46:11.218Z,99442.91
2022-10-15T19:48:39.002Z,99415.56
2022-10-15T19:51:06.798Z,99461.06
2022-10-15T19:53:33.858Z,99448.50
2022-10-15T19:56:11.306Z,99452.09
2022-10-15T19:58:38.148Z,99443.59
2022-10-15T20:01:05.564Z,99444.19
2022-10-15T20:03:32.524Z,99443.59
2022-10-15T20:06:06.253Z,99439.53
2022-10-15T20:08:33.306Z,99453.03
2022-10-15T20:11:00.176Z,99458.63
2022-10-15T20:13:27.267Z,99463.16
2022-10-15T20:15:54.534Z,99457.72
2022-10-15T20:18:21.921Z,99439.66
2022-10-15T20:20:48.922Z,99452.59
2022-10-15T20:23:17.138Z,99469.94
2022-10-15T20:25:45.066Z,99463.97
2022-10-15T20:28:13.929Z,99462.34
2022-10-15T20:30:41.370Z,99467.34
2022-10-15T20:33:09.091Z,99467.84
2022-10-15T20:35:38.440Z,99468.88
2022-10-15T20:38:06.297Z,99467.94
2022-10-15T20:40:34.422Z,99477.13
2022-10-15T20:43:01.214Z,99476.91
2022-10-15T20:45:34.666Z,99463.03
2022-10-15T20:48:03.072Z,99487.84
2022-10-15T20:50:35.684Z,99456.91
2022-10-15T20:53:03.122Z,99481.00
2022-10-15T20:55:30.234Z,99498.78
2022-10-15T20:57:57.106Z,99500.06
2022-10-15T21:00:25.147Z,99496.81
2022-10-15T21:02:51.990Z,99496.00
2022-10-15T21:05:18.758Z,99502.88
2022-10-15T21:07:45.455Z,99502.06
2022-10-15T21:10:12.284Z,99502.88
2022-10-15T21:12:39.271Z,99504.03
2022-10-15T21:15:06.675Z,99486.00
2022-10-15T21:17:33.385Z,99498.44
2022-10-15T21:20:00.385Z,99507.19
2022-10-15T21:22:27.180Z,99495.28
2022-10-15T21:24:53.845Z,99512.91
2022-10-15T21:27:21.366Z,99504.94
2022-10-15T21:29:49.421Z,99511.81
2022-10-15T21:32:16.208Z,99517.16
2022-10-15T21:34:43.051Z,99515.28
2022-10-15T21:37:09.901Z,99521.00
2022-10-15T21:39:36.614Z,99522.41
2022-10-15T21:42:03.506Z,99508.66
2022-10-15T21:44:30.165Z,99513.69
2022-10-15T21:46:56.856Z,99506.34
2022-10-15T21:49:23.778Z,99505.66
2022-10-15T21:51:50.436Z,99520.09
2022-10-15T21:54:17.253Z,99515.81
2022-10-15T21:56:44.016Z,99514.03
2022-10-15T21:59:10.832Z,99531.75
2022-10-15T22:01:37.975Z,99533.59
2022-10-15T22:04:07.373Z,99534.44
2022-10-15T22:06:36.194Z,99526.38
2022-10-15T22:09:04.167Z,99483.66
2022-10-15T22:11:33.909Z,99529.06
2022-10-15T22:14:03.771Z,99522.91
2022-10-15T22:16:34.097Z,99519.75
2022-10-15T22:19:00.908Z,99536.50
2022-10-15T22:21:33.421Z,99524.97
2022-10-15T22:24:03.064Z,99528.97
2022-10-15T22:26:33.453Z,99539.31
2022-10-15T22:29:02.148Z,99535.13
2022-10-15T22:31:29.554Z,99539.19
2022-10-15T22:33:58.454Z,99528.81
2022-10-15T22:36:28.167Z,99535.56
2022-10-15T22:39:05.123Z,99530.91
2022-10-15T22:41:38.619Z,99525.91
2022-10-15T22:44:06.627Z,99509.28
2022-10-15T22:46:38.304Z,99527.06
2022-10-15T22:49:07.033Z,99527.44
2022-10-15T22:51:34.466Z,99521.84
2022-10-15T22:54:02.078Z,99538.84
2022-10-15T22:56:29.449Z,99547.34
2022-10-15T22:58:57.080Z,99538.28
2022-10-15T23:01:26.730Z,99543.63
2022-10-15T23:03:56.486Z,99537.91
2022-10-15T23:06:24.307Z,99538.28
2022-10-15T23:08:51.613Z,99539.66
2022-10-15T23:11:24.494Z,99537.22
2022-10-15T23:13:56.953Z,99534.19
2022-10-15T23:16:26.333Z,99530.13
2022-10-15T23:18:56.046Z,99534.19
2022-10-15T23:21:29.722Z,99534.19
2022-10-15T23:23:56.476Z,99541.66
2022-10-15T23:26:23.561Z,99554.09
2022-10-15T23:28:55.939Z,99550.50
2022-10-15T23:31:31.391Z,99555.03
2022-10-15T23:33:58.463Z,99526.47
2022-10-15T23:36:27.359Z,99552.56
2022-10-15T23:38:56.403Z,99567.72
2022-10-15T23:41:23.974Z,99562.72
2022-10-15T23:43:51.280Z,99556.53
2022-10-15T23:46:18.932Z,99550.03
2022-10-15T23:48:46.600Z,99554.09
2022-10-15T23:51:25.683Z,99562.16
2022-10-15T23:53:53.569Z,99562.38
2022-10-15T23:56:21.124Z,99556.31
2022-10-15T23:58:52.403Z,99535.34
